sensor_id;sensor_type;location;lat;lon;timestamp;pressure;altitude;pressure_sealevel;temperature;humidity
78206;BME280;67480;48.920;12.880;2023-04-03T00:00:58;97671.16;;;3.76;49.52
78206;BME280;67480;48.920;12.880;2023-04-03T00:03:23;97670.81;;;4.00;48.96
78206;BME280;67480;48.920;12.880;2023-04-03T00:05:49;97675.28;;;3.62;48.97
78206;BME280;67480;48.920;12.880;2023-04-03T00:08:14;97670.69;;;3.84;49.33
78206;BME280;67480;48.920;12.880;2023-04-03T00:10:40;97670.19;;;3.60;47.76
78206;BME280;67480;48.920;12.880;2023-04-03T00:13:06;97673.50;;;3.72;49.56
78206;BME280;67480;48.920;12.880;2023-04-03T00:15:32;97670.59;;;3.47;48.93
78206;BME280;67480;48.920;12.880;2023-04-03T00:17:57;97667.00;;;3.58;48.63
78206;BME280;67480;48.920;12.880;2023-04-03T00:20:23;97667.63;;;3.70;49.29
78206;BME280;67480;48.920;12.880;2023-04-03T00:22:48;97672.44;;;3.73;49.91
78206;BME280;67480;48.920;12.880;2023-04-03T00:25:14;97663.63;;;3.68;50.63
78206;BME280;67480;48.920;12.880;2023-04-03T00:27:40;97666.03;;;3.69;50.00
78206;BME280;67480;48.920;12.880;2023-04-03T00:30:07;97662.72;;;3.84;49.96
78206;BME280;67480;48.920;12.880;2023-04-03T00:32:33;97668.91;;;3.95;49.83
78206;BME280;67480;48.920;12.880;2023-04-03T00:34:59;97670.03;;;3.99;50.29
78206;BME280;67480;48.920;12.880;2023-04-03T00:37:24;97664.44;;;4.01;51.15
78206;BME280;67480;48.920;12.880;2023-04-03T00:39:50;97667.56;;;3.92;51.60
78206;BME280;67480;48.920;12.880;2023-04-03T00:42:15;97672.94;;;3.98;52.80
78206;BME280;67480;48.920;12.880;2023-04-03T00:47:08;97675.31;;;3.94;51.92
78206;BME280;67480;48.920;12.880;2023-04-03T00:49:35;97666.41;;;3.83;53.37
78206;BME280;67480;48.920;12.880;2023-04-03T00:52:02;97669.28;;;3.77;52.77
78206;BME280;67480;48.920;12.880;2023-04-03T00:54:27;97672.88;;;3.87;54.28
78206;BME280;67480;48.920;12.880;2023-04-03T00:56:54;97668.28;;;3.83;55.21
78206;BME280;67480;48.920;12.880;2023-04-03T00:59:24;97676.28;;;3.83;55.96
78206;BME280;67480;48.920;12.880;2023-04-03T01:01:53;97672.38;;;3.90;55.05
78206;BME280;67480;48.920;12.880;2023-04-03T01:06:56;97675.28;;;3.89;56.36
78206;BME280;67480;48.920;12.880;2023-04-03T01:09:22;97680.06;;;3.60;52.92
78206;BME280;67480;48.920;12.880;2023-04-03T01:11:48;97671.59;;;3.46;53.32
78206;BME280;67480;48.920;12.880;2023-04-03T01:14:13;97673.34;;;3.57;50.90
78206;BME280;67480;48.920;12.880;2023-04-03T01:16:38;97679.09;;;3.71;48.35
78206;BME280;67480;48.920;12.880;2023-04-03T01:19:07;97680.72;;;3.77;49.31
78206;BME280;67480;48.920;12.880;2023-04-03T01:26:54;97687.09;;;3.71;50.85
78206;BME280;67480;48.920;12.880;2023-04-03T01:29:20;97688.88;;;3.65;52.29
78206;BME280;67480;48.920;12.880;2023-04-03T01:31:57;97685.75;;;3.24;51.99
78206;BME280;67480;48.920;12.880;2023-04-03T01:34:23;97686.66;;;3.57;48.83
78206;BME280;67480;48.920;12.880;2023-04-03T01:36:49;97681.16;;;3.42;48.65
78206;BME280;67480;48.920;12.880;2023-04-03T01:39:16;97673.25;;;3.47;50.76
78206;BME280;67480;48.920;12.880;2023-04-03T01:41:41;97682.16;;;3.35;50.75
78206;BME280;67480;48.920;12.880;2023-04-03T01:44:07;97680.84;;;3.60;48.92
78206;BME280;67480;48.920;12.880;2023-04-03T01:46:32;97687.00;;;3.66;52.92
78206;BME280;67480;48.920;12.880;2023-04-03T01:48:58;97688.13;;;3.70;54.04
78206;BME280;67480;48.920;12.880;2023-04-03T01:51:23;97684.41;;;3.71;55.03
78206;BME280;67480;48.920;12.880;2023-04-03T01:53:48;97680.72;;;3.77;55.82
78206;BME280;67480;48.920;12.880;2023-04-03T01:56:14;97682.31;;;3.73;55.92
78206;BME280;67480;48.920;12.880;2023-04-03T01:58:39;97683.06;;;3.46;56.26
78206;BME280;67480;48.920;12.880;2023-04-03T02:01:05;97686.91;;;3.55;57.25
78206;BME280;67480;48.920;12.880;2023-04-03T02:03:31;97681.44;;;3.67;56.52
78206;BME280;67480;48.920;12.880;2023-04-03T02:05:57;97680.69;;;3.72;55.92
78206;BME280;67480;48.920;12.880;2023-04-03T02:08:22;97688.38;;;3.68;55.17
78206;BME280;67480;48.920;12.880;2023-04-03T02:10:49;97688.88;;;3.65;56.03
78206;BME280;67480;48.920;12.880;2023-04-03T02:13:15;97694.78;;;3.72;55.41
78206;BME280;67480;48.920;12.880;2023-04-03T02:15:41;97694.44;;;3.64;54.89
78206;BME280;67480;48.920;12.880;2023-04-03T02:18:07;97692.53;;;3.59;55.44
78206;BME280;67480;48.920;12.880;2023-04-03T02:20:33;97694.06;;;3.33;55.61
78206;BME280;67480;48.920;12.880;2023-04-03T02:22:58;97695.16;;;3.32;55.91
78206;BME280;67480;48.920;12.880;2023-04-03T02:25:24;97693.72;;;3.46;56.42
78206;BME280;67480;48.920;12.880;2023-04-03T02:27:49;97696.13;;;3.48;56.72
78206;BME280;67480;48.920;12.880;2023-04-03T02:30:15;97694.53;;;3.47;56.70
78206;BME280;67480;48.920;12.880;2023-04-03T02:32:42;97687.09;;;3.49;57.08
78206;BME280;67480;48.920;12.880;2023-04-03T02:35:08;97682.59;;;3.49;57.30
78206;BME280;67480;48.920;12.880;2023-04-03T02:37:34;97682.88;;;3.53;55.99
78206;BME280;67480;48.920;12.880;2023-04-03T02:39:59;97684.63;;;3.42;55.81
78206;BME280;67480;48.920;12.880;2023-04-03T02:42:25;97686.91;;;3.33;56.99
78206;BME280;67480;48.920;12.880;2023-04-03T02:44:50;97680.34;;;3.41;57.02
78206;BME280;67480;48.920;12.880;2023-04-03T02:47:15;97686.47;;;3.42;56.91
78206;BME280;67480;48.920;12.880;2023-04-03T02:49:41;97689.03;;;3.53;56.33
78206;BME280;67480;48.920;12.880;2023-04-03T02:52:08;97692.72;;;3.52;55.49
78206;BME280;67480;48.920;12.880;2023-04-03T02:54:34;97682.63;;;3.54;55.86
78206;BME280;67480;48.920;12.880;2023-04-03T02:57:00;97689.78;;;3.49;56.01
78206;BME280;67480;48.920;12.880;2023-04-03T02:59:25;97679.91;;;3.49;56.46
78206;BME280;67480;48.920;12.880;2023-04-03T03:01:51;97690.38;;;3.56;55.97
78206;BME280;67480;48.920;12.880;2023-04-03T03:04:16;97688.34;;;3.63;55.55
78206;BME280;67480;48.920;12.880;2023-04-03T03:06:41;97689.63;;;3.61;56.03
78206;BME280;67480;48.920;12.880;2023-04-03T03:09:07;97687.50;;;3.63;55.82
78206;BME280;67480;48.920;12.880;2023-04-03T03:11:32;97679.81;;;3.61;55.26
78206;BME280;67480;48.920;12.880;2023-04-03T03:13:58;97687.47;;;3.58;56.42
78206;BME280;67480;48.920;12.880;2023-04-03T03:16:23;97686.06;;;3.50;57.14
78206;BME280;67480;48.920;12.880;2023-04-03T03:18:48;97685.25;;;3.49;57.78
78206;BME280;67480;48.920;12.880;2023-04-03T03:21:14;97685.28;;;3.54;57.63
78206;BME280;67480;48.920;12.880;2023-04-03T03:23:40;97690.16;;;3.63;57.91
78206;BME280;67480;48.920;12.880;2023-04-03T03:26:07;97692.34;;;3.66;56.70
78206;BME280;67480;48.920;12.880;2023-04-03T03:28:34;97685.50;;;3.75;55.92
78206;BME280;67480;48.920;12.880;2023-04-03T03:31:01;97682.50;;;3.66;56.00
78206;BME280;67480;48.920;12.880;2023-04-03T03:33:27;97687.00;;;3.66;55.46
78206;BME280;67480;48.920;12.880;2023-04-03T03:35:52;97679.66;;;3.51;55.21
78206;BME280;67480;48.920;12.880;2023-04-03T03:38:19;97696.75;;;3.55;55.27
78206;BME280;67480;48.920;12.880;2023-04-03T03:40:44;97690.16;;;3.63;54.45
78206;BME280;67480;48.920;12.880;2023-04-03T03:43:09;97686.22;;;3.65;53.88
78206;BME280;67480;48.920;12.880;2023-04-03T03:45:35;97684.00;;;3.57;53.77
78206;BME280;67480;48.920;12.880;2023-04-03T03:48:01;97682.59;;;3.49;53.77
78206;BME280;67480;48.920;12.880;2023-04-03T03:50:26;97679.38;;;3.47;53.63
78206;BME280;67480;48.920;12.880;2023-04-03T03:52:52;97685.84;;;3.34;54.26
78206;BME280;67480;48.920;12.880;2023-04-03T03:55:17;97687.53;;;3.41;53.46
78206;BME280;67480;48.920;12.880;2023-04-03T03:57:43;97680.91;;;3.43;54.04
78206;BME280;67480;48.920;12.880;2023-04-03T04:00:09;97688.97;;;3.48;53.12
78206;BME280;67480;48.920;12.880;2023-04-03T04:02:34;97685.28;;;3.54;53.44
78206;BME280;67480;48.920;12.880;2023-04-03T04:05:00;97682.63;;;3.32;54.09
78206;BME280;67480;48.920;12.880;2023-04-03T04:07:25;97668.34;;;3.38;52.96
78206;BME280;67480;48.920;12.880;2023-04-03T04:09:53;97667.78;;;3.36;53.43
78206;BME280;67480;48.920;12.880;2023-04-03T04:12:18;97669.09;;;3.34;53.76
78206;BME280;67480;48.920;12.880;2023-04-03T04:14:44;97669.34;;;3.32;53.31
78206;BME280;67480;48.920;12.880;2023-04-03T04:17:11;97679.69;;;3.29;53.92
78206;BME280;67480;48.920;12.880;2023-04-03T04:19:37;97678.69;;;3.13;53.67
78206;BME280;67480;48.920;12.880;2023-04-03T04:22:03;97682.00;;;3.25;53.46
78206;BME280;67480;48.920;12.880;2023-04-03T04:24:28;97685.78;;;3.29;53.77
78206;BME280;67480;48.920;12.880;2023-04-03T04:26:53;97683.06;;;3.24;53.81
78206;BME280;67480;48.920;12.880;2023-04-03T04:29:18;97683.81;;;3.19;53.79
78206;BME280;67480;48.920;12.880;2023-04-03T04:31:44;97690.50;;;3.22;53.72
78206;BME280;67480;48.920;12.880;2023-04-03T04:34:09;97686.03;;;3.28;53.47
78206;BME280;67480;48.920;12.880;2023-04-03T04:36:34;97688.75;;;3.33;53.54
78206;BME280;67480;48.920;12.880;2023-04-03T04:39:00;97689.31;;;3.35;53.72
78206;BME280;67480;48.920;12.880;2023-04-03T04:41:25;97686.03;;;3.28;53.11
78206;BME280;67480;48.920;12.880;2023-04-03T04:43:51;97696.06;;;3.21;53.48
78206;BME280;67480;48.920;12.880;2023-04-03T04:46:17;97694.41;;;3.14;54.10
78206;BME280;67480;48.920;12.880;2023-04-03T04:48:42;97698.53;;;3.27;53.81
78206;BME280;67480;48.920;12.880;2023-04-03T04:51:08;97701.63;;;3.19;53.60
78206;BME280;67480;48.920;12.880;2023-04-03T04:53:33;97695.69;;;3.34;53.70
78206;BME280;67480;48.920;12.880;2023-04-03T04:55:58;97710.88;;;3.33;53.09
78206;BME280;67480;48.920;12.880;2023-04-03T04:58:24;97706.03;;;3.30;53.10
78206;BME280;67480;48.920;12.880;2023-04-03T05:01:00;97699.66;;;3.31;52.39
78206;BME280;67480;48.920;12.880;2023-04-03T05:03:26;97703.44;;;3.35;52.80
78206;BME280;67480;48.920;12.880;2023-04-03T05:05:51;97697.41;;;3.45;53.00
78206;BME280;67480;48.920;12.880;2023-04-03T05:08:16;97707.03;;;3.24;52.88
78206;BME280;67480;48.920;12.880;2023-04-03T05:10:42;97698.91;;;3.36;51.92
78206;BME280;67480;48.920;12.880;2023-04-03T05:13:07;97704.28;;;3.41;51.79
78206;BME280;67480;48.920;12.880;2023-04-03T05:15:33;97701.88;;;3.40;51.77
78206;BME280;67480;48.920;12.880;2023-04-03T05:17:58;97704.97;;;3.31;51.48
78206;BME280;67480;48.920;12.880;2023-04-03T05:20:23;97716.97;;;3.34;51.49
78206;BME280;67480;48.920;12.880;2023-04-03T05:22:48;97713.34;;;3.40;52.48
78206;BME280;67480;48.920;12.880;2023-04-03T05:25:14;97718.53;;;3.52;52.41
78206;BME280;67480;48.920;12.880;2023-04-03T05:27:39;97723.44;;;3.60;52.03
78206;BME280;67480;48.920;12.880;2023-04-03T05:30:05;97725.78;;;3.57;51.67
78206;BME280;67480;48.920;12.880;2023-04-03T05:32:31;97732.66;;;3.52;52.70
78206;BME280;67480;48.920;12.880;2023-04-03T05:34:56;97728.44;;;3.57;51.23
78206;BME280;67480;48.920;12.880;2023-04-03T05:37:21;97731.91;;;3.57;51.72
78206;BME280;67480;48.920;12.880;2023-04-03T05:39:47;97729.25;;;3.57;52.03
78206;BME280;67480;48.920;12.880;2023-04-03T05:42:12;97728.66;;;3.50;52.37
78206;BME280;67480;48.920;12.880;2023-04-03T05:44:39;97733.06;;;3.44;52.28
78206;BME280;67480;48.920;12.880;2023-04-03T05:47:04;97737.78;;;3.37;53.33
78206;BME280;67480;48.920;12.880;2023-04-03T05:49:31;97737.19;;;3.35;53.07
78206;BME280;67480;48.920;12.880;2023-04-03T05:51:56;97735.41;;;3.41;52.86
78206;BME280;67480;48.920;12.880;2023-04-03T05:54:26;97729.22;;;3.35;52.98
78206;BME280;67480;48.920;12.880;2023-04-03T05:56:52;97741.78;;;3.40;52.58
78206;BME280;67480;48.920;12.880;2023-04-03T05:59:19;97740.69;;;3.35;53.05
78206;BME280;67480;48.920;12.880;2023-04-03T06:01:45;97745.41;;;3.50;52.72
78206;BME280;67480;48.920;12.880;2023-04-03T06:04:11;97744.50;;;3.45;53.19
78206;BME280;67480;48.920;12.880;2023-04-03T06:06:49;97744.03;;;3.48;53.01
78206;BME280;67480;48.920;12.880;2023-04-03T06:09:18;97750.72;;;3.50;53.21
78206;BME280;67480;48.920;12.880;2023-04-03T06:11:44;97747.69;;;3.64;52.17
78206;BME280;67480;48.920;12.880;2023-04-03T06:14:10;97760.06;;;3.53;52.24
78206;BME280;67480;48.920;12.880;2023-04-03T06:16:36;97754.56;;;3.60;52.02
78206;BME280;67480;48.920;12.880;2023-04-03T06:19:02;97758.59;;;3.62;52.25
78206;BME280;67480;48.920;12.880;2023-04-03T06:21:27;97764.34;;;3.54;51.53
78206;BME280;67480;48.920;12.880;2023-04-03T06:23:52;97758.31;;;3.42;52.62
78206;BME280;67480;48.920;12.880;2023-04-03T06:26:18;97757.09;;;3.49;53.04
78206;BME280;67480;48.920;12.880;2023-04-03T06:28:43;97755.81;;;3.52;51.92
78206;BME280;67480;48.920;12.880;2023-04-03T06:31:09;97761.06;;;3.47;50.89
78206;BME280;67480;48.920;12.880;2023-04-03T06:33:34;97761.44;;;3.55;51.12
78206;BME280;67480;48.920;12.880;2023-04-03T06:36:04;97771.78;;;3.52;50.30
78206;BME280;67480;48.920;12.880;2023-04-03T06:38:29;97767.59;;;3.39;50.67
78206;BME280;67480;48.920;12.880;2023-04-03T06:40:55;97763.56;;;3.36;50.13
78206;BME280;67480;48.920;12.880;2023-04-03T06:43:21;97777.50;;;3.44;50.46
78206;BME280;67480;48.920;12.880;2023-04-03T06:45:46;97767.97;;;3.48;50.98
78206;BME280;67480;48.920;12.880;2023-04-03T06:48:12;97777.94;;;3.58;50.76
78206;BME280;67480;48.920;12.880;2023-04-03T06:50:38;97772.78;;;3.68;51.09
78206;BME280;67480;48.920;12.880;2023-04-03T06:53:03;97780.31;;;3.76;51.76
78206;BME280;67480;48.920;12.880;2023-04-03T06:55:28;97786.50;;;3.82;48.99
78206;BME280;67480;48.920;12.880;2023-04-03T06:57:54;97781.06;;;3.71;48.27
78206;BME280;67480;48.920;12.880;2023-04-03T07:00:19;97779.63;;;3.86;48.01
78206;BME280;67480;48.920;12.880;2023-04-03T07:02:45;97777.72;;;4.08;46.52
78206;BME280;67480;48.920;12.880;2023-04-03T07:05:10;97789.13;;;4.04;45.50
78206;BME280;67480;48.920;12.880;2023-04-03T07:07:36;97782.91;;;4.20;46.07
78206;BME280;67480;48.920;12.880;2023-04-03T07:10:03;97796.75;;;4.50;45.50
78206;BME280;67480;48.920;12.880;2023-04-03T07:12:28;97787.84;;;4.66;44.75
78206;BME280;67480;48.920;12.880;2023-04-03T07:14:54;97797.34;;;4.89;44.07
78206;BME280;67480;48.920;12.880;2023-04-03T07:17:19;97792.22;;;4.82;42.95
78206;BME280;67480;48.920;12.880;2023-04-03T07:19:45;97795.69;;;5.26;42.28
78206;BME280;67480;48.920;12.880;2023-04-03T07:22:10;97807.28;;;5.47;42.40
78206;BME280;67480;48.920;12.880;2023-04-03T07:24:36;97809.69;;;6.01;42.60
78206;BME280;67480;48.920;12.880;2023-04-03T07:27:02;97809.50;;;6.28;40.23
78206;BME280;67480;48.920;12.880;2023-04-03T07:29:28;97805.44;;;7.44;37.50
78206;BME280;67480;48.920;12.880;2023-04-03T07:31:53;97819.78;;;8.39;38.00
78206;BME280;67480;48.920;12.880;2023-04-03T07:34:20;97821.34;;;9.14;36.40
78206;BME280;67480;48.920;12.880;2023-04-03T07:36:46;97818.31;;;8.92;34.13
78206;BME280;67480;48.920;12.880;2023-04-03T07:39:11;97816.84;;;8.75;35.52
78206;BME280;67480;48.920;12.880;2023-04-03T07:41:36;97818.66;;;8.45;35.67
78206;BME280;67480;48.920;12.880;2023-04-03T07:44:02;97828.56;;;8.00;36.45
78206;BME280;67480;48.920;12.880;2023-04-03T07:46:27;97824.19;;;7.34;37.41
78206;BME280;67480;48.920;12.880;2023-04-03T07:48:53;97821.81;;;7.01;36.75
78206;BME280;67480;48.920;12.880;2023-04-03T07:51:18;97819.88;;;6.20;37.67
78206;BME280;67480;48.920;12.880;2023-04-03T07:53:44;97819.88;;;6.20;39.51
78206;BME280;67480;48.920;12.880;2023-04-03T07:56:09;97819.94;;;6.51;37.38
78206;BME280;67480;48.920;12.880;2023-04-03T07:58:35;97831.72;;;8.18;35.96
78206;BME280;67480;48.920;12.880;2023-04-03T08:01:01;97827.19;;;9.51;33.74
78206;BME280;67480;48.920;12.880;2023-04-03T08:03:26;97831.09;;;11.49;31.58
78206;BME280;67480;48.920;12.880;2023-04-03T08:05:51;97832.31;;;11.84;31.23
78206;BME280;67480;48.920;12.880;2023-04-03T08:08:20;97832.59;;;11.55;29.70
78206;BME280;67480;48.920;12.880;2023-04-03T08:10:53;97842.13;;;12.44;30.37
78206;BME280;67480;48.920;12.880;2023-04-03T08:13:20;97830.78;;;11.92;30.31
78206;BME280;67480;48.920;12.880;2023-04-03T08:15:46;97834.03;;;10.67;31.16
78206;BME280;67480;48.920;12.880;2023-04-03T08:18:12;97833.97;;;10.34;31.97
78206;BME280;67480;48.920;12.880;2023-04-03T08:20:38;97829.09;;;11.54;29.97
78206;BME280;67480;48.920;12.880;2023-04-03T08:23:05;97836.38;;;10.36;29.23
78206;BME280;67480;48.920;12.880;2023-04-03T08:25:30;97829.69;;;8.78;30.85
78206;BME280;67480;48.920;12.880;2023-04-03T08:27:55;97833.41;;;9.70;31.32
78206;BME280;67480;48.920;12.880;2023-04-03T08:30:21;97840.16;;;12.36;27.98
78206;BME280;67480;48.920;12.880;2023-04-03T08:32:46;97849.03;;;13.72;26.53
78206;BME280;67480;48.920;12.880;2023-04-03T08:35:12;97847.97;;;14.83;25.72
78206;BME280;67480;48.920;12.880;2023-04-03T08:37:38;97846.63;;;14.20;25.21
78206;BME280;67480;48.920;12.880;2023-04-03T08:40:10;97846.56;;;14.02;25.54
78206;BME280;67480;48.920;12.880;2023-04-03T08:45:51;97845.72;;;16.06;22.63
78206;BME280;67480;48.920;12.880;2023-04-03T08:48:26;97860.31;;;17.86;21.19
78206;BME280;67480;48.920;12.880;2023-04-03T08:50:58;97856.91;;;17.89;19.59
78206;BME280;67480;48.920;12.880;2023-04-03T08:53:28;97859.28;;;17.66;20.40
78206;BME280;67480;48.920;12.880;2023-04-03T08:55:56;97849.06;;;18.49;20.42
78206;BME280;67480;48.920;12.880;2023-04-03T08:58:28;97859.34;;;18.68;20.35
78206;BME280;67480;48.920;12.880;2023-04-03T09:01:06;97857.59;;;18.35;20.63
78206;BME280;67480;48.920;12.880;2023-04-03T09:03:40;97863.16;;;18.39;19.82
78206;BME280;67480;48.920;12.880;2023-04-03T09:08:50;97872.78;;;20.77;17.54
78206;BME280;67480;48.920;12.880;2023-04-03T09:17:22;97875.75;;;19.85;17.44
78206;BME280;67480;48.920;12.880;2023-04-03T09:22:43;97882.28;;;20.48;17.60
78206;BME280;67480;48.920;12.880;2023-04-03T09:25:25;97882.56;;;20.43;17.56
78206;BME280;67480;48.920;12.880;2023-04-03T09:27:52;97883.72;;;20.77;17.43
78206;BME280;67480;48.920;12.880;2023-04-03T09:30:21;97897.06;;;21.80;16.95
78206;BME280;67480;48.920;12.880;2023-04-03T09:32:50;97884.25;;;22.11;16.06
78206;BME280;67480;48.920;12.880;2023-04-03T09:40:44;97896.19;;;23.43;15.38
78206;BME280;67480;48.920;12.880;2023-04-03T09:45:42;97892.56;;;24.14;14.53
78206;BME280;67480;48.920;12.880;2023-04-03T09:48:12;97888.00;;;24.33;14.69
78206;BME280;67480;48.920;12.880;2023-04-03T09:53:39;97889.72;;;22.91;14.70
78206;BME280;67480;48.920;12.880;2023-04-03T09:56:26;97876.69;;;21.35;15.43
78206;BME280;67480;48.920;12.880;2023-04-03T10:01:28;97865.38;;;16.03;19.30
78206;BME280;67480;48.920;12.880;2023-04-03T10:04:10;97861.56;;;14.17;20.80
78206;BME280;67480;48.920;12.880;2023-04-03T10:09:31;97857.25;;;18.90;16.52
78206;BME280;67480;48.920;12.880;2023-04-03T10:14:35;97860.09;;;23.82;14.20
78206;BME280;67480;48.920;12.880;2023-04-03T10:28:02;97878.66;;;26.58;13.60
78206;BME280;67480;48.920;12.880;2023-04-03T10:33:30;97870.75;;;25.24;13.49
78206;BME280;67480;48.920;12.880;2023-04-03T10:36:16;97856.25;;;23.94;13.82
78206;BME280;67480;48.920;12.880;2023-04-03T10:39:13;97848.78;;;19.99;17.08
78206;BME280;67480;48.920;12.880;2023-04-03T10:42:10;97850.97;;;21.00;14.45
78206;BME280;67480;48.920;12.880;2023-04-03T10:45:03;97852.41;;;22.86;15.56
78206;BME280;67480;48.920;12.880;2023-04-03T10:47:52;97862.44;;;25.09;14.03
78206;BME280;67480;48.920;12.880;2023-04-03T10:53:03;97868.00;;;26.75;12.72
78206;BME280;67480;48.920;12.880;2023-04-03T10:58:37;97871.88;;;26.92;11.87
78206;BME280;67480;48.920;12.880;2023-04-03T11:01:18;97855.84;;;26.33;11.29
78206;BME280;67480;48.920;12.880;2023-04-03T11:03:47;97865.09;;;29.30;10.91
78206;BME280;67480;48.920;12.880;2023-04-03T11:06:15;97844.34;;;23.79;12.44
78206;BME280;67480;48.920;12.880;2023-04-03T11:08:50;97849.06;;;22.43;13.60
78206;BME280;67480;48.920;12.880;2023-04-03T11:11:34;97842.41;;;23.42;13.84
78206;BME280;67480;48.920;12.880;2023-04-03T11:16:28;97856.25;;;25.52;11.42
78206;BME280;67480;48.920;12.880;2023-04-03T11:21:29;97849.38;;;24.18;14.11
78206;BME280;67480;48.920;12.880;2023-04-03T11:23:57;97854.69;;;26.30;11.18
78206;BME280;67480;48.920;12.880;2023-04-03T11:26:30;97843.41;;;24.79;11.59
78206;BME280;67480;48.920;12.880;2023-04-03T11:29:04;97823.13;;;20.75;14.45
78206;BME280;67480;48.920;12.880;2023-04-03T11:32:01;97813.00;;;17.66;16.75
78206;BME280;67480;48.920;12.880;2023-04-03T11:34:42;97803.19;;;14.51;19.95
78206;BME280;67480;48.920;12.880;2023-04-03T11:37:23;97819.06;;;14.26;22.05
78206;BME280;67480;48.920;12.880;2023-04-03T11:42:42;97838.88;;;13.47;22.22
78206;BME280;67480;48.920;12.880;2023-04-03T11:50:41;97830.28;;;23.43;14.44
78206;BME280;67480;48.920;12.880;2023-04-03T12:24:38;97825.78;;;24.17;12.73
78206;BME280;67480;48.920;12.880;2023-04-03T12:38:36;97823.75;;;20.88;16.34
78206;BME280;67480;48.920;12.880;2023-04-03T12:41:22;97811.13;;;15.94;18.05
78206;BME280;67480;48.920;12.880;2023-04-03T12:46:51;97821.84;;;17.63;18.53
78206;BME280;67480;48.920;12.880;2023-04-03T12:51:46;97818.06;;;20.97;15.18
78206;BME280;67480;48.920;12.880;2023-04-03T12:54:33;97813.13;;;19.00;16.70
78206;BME280;67480;48.920;12.880;2023-04-03T12:59:41;97822.78;;;25.57;12.32
78206;BME280;67480;48.920;12.880;2023-04-03T13:04:53;97817.25;;;27.28;10.81
78206;BME280;67480;48.920;12.880;2023-04-03T13:07:23;97831.94;;;29.77;9.76
78206;BME280;67480;48.920;12.880;2023-04-03T13:10:23;97827.50;;;28.29;10.84
78206;BME280;67480;48.920;12.880;2023-04-03T13:12:56;97817.75;;;28.17;10.13
78206;BME280;67480;48.920;12.880;2023-04-03T13:15:28;97807.25;;;21.04;14.48
78206;BME280;67480;48.920;12.880;2023-04-03T13:17:55;97808.19;;;18.49;17.84
78206;BME280;67480;48.920;12.880;2023-04-03T13:20:25;97806.31;;;16.00;19.19
78206;BME280;67480;48.920;12.880;2023-04-03T13:25:23;97802.78;;;20.56;17.21
78206;BME280;67480;48.920;12.880;2023-04-03T13:27:50;97822.34;;;26.42;12.87
78206;BME280;67480;48.920;12.880;2023-04-03T13:32:50;97797.06;;;28.94;9.51
78206;BME280;67480;48.920;12.880;2023-04-03T13:35:38;97809.94;;;30.74;8.83
78206;BME280;67480;48.920;12.880;2023-04-03T13:38:22;97788.09;;;25.35;10.19
78206;BME280;67480;48.920;12.880;2023-04-03T13:40:49;97799.59;;;28.82;10.42
78206;BME280;67480;48.920;12.880;2023-04-03T13:43:21;97793.56;;;29.72;9.36
78206;BME280;67480;48.920;12.880;2023-04-03T13:48:25;97777.09;;;21.70;13.29
78206;BME280;67480;48.920;12.880;2023-04-03T13:51:04;97778.63;;;17.49;17.47
78206;BME280;67480;48.920;12.880;2023-04-03T13:53:33;97775.47;;;14.63;19.64
78206;BME280;67480;48.920;12.880;2023-04-03T13:58:29;97779.28;;;12.98;21.63
78206;BME280;67480;48.920;12.880;2023-04-03T14:01:00;97782.84;;;12.39;22.88
78206;BME280;67480;48.920;12.880;2023-04-03T14:03:31;97780.16;;;12.39;22.40
78206;BME280;67480;48.920;12.880;2023-04-03T14:05:58;97764.16;;;12.65;22.70
78206;BME280;67480;48.920;12.880;2023-04-03T14:08:23;97772.16;;;17.54;17.58
78206;BME280;67480;48.920;12.880;2023-04-03T14:10:49;97783.34;;;25.06;13.28
78206;BME280;67480;48.920;12.880;2023-04-03T14:13:18;97778.38;;;23.76;12.29
78206;BME280;67480;48.920;12.880;2023-04-03T14:15:45;97772.28;;;21.36;13.67
78206;BME280;67480;48.920;12.880;2023-04-03T14:18:15;97761.78;;;18.21;17.09
78206;BME280;67480;48.920;12.880;2023-04-03T14:20:41;97767.50;;;15.99;18.77
78206;BME280;67480;48.920;12.880;2023-04-03T14:23:07;97762.66;;;15.07;20.40
78206;BME280;67480;48.920;12.880;2023-04-03T14:25:32;97756.00;;;13.99;22.45
78206;BME280;67480;48.920;12.880;2023-04-03T14:27:58;97759.91;;;13.27;22.86
78206;BME280;67480;48.920;12.880;2023-04-03T14:30:30;97763.63;;;12.77;22.48
78206;BME280;67480;48.920;12.880;2023-04-03T14:32:56;97771.75;;;12.04;23.39
78206;BME280;67480;48.920;12.880;2023-04-03T14:35:22;97768.06;;;11.86;22.64
78206;BME280;67480;48.920;12.880;2023-04-03T14:37:48;97763.56;;;10.98;23.84
78206;BME280;67480;48.920;12.880;2023-04-03T14:40:16;97766.53;;;12.22;22.27
78206;BME280;67480;48.920;12.880;2023-04-03T14:42:42;97760.47;;;18.15;18.97
78206;BME280;67480;48.920;12.880;2023-04-03T14:45:10;97772.88;;;18.41;17.14
78206;BME280;67480;48.920;12.880;2023-04-03T14:47:40;97763.75;;;13.26;19.65
78206;BME280;67480;48.920;12.880;2023-04-03T14:50:07;97761.41;;;13.42;20.85
78206;BME280;67480;48.920;12.880;2023-04-03T14:52:35;97761.00;;;12.95;21.97
78206;BME280;67480;48.920;12.880;2023-04-03T14:55:02;97776.31;;;13.31;21.70
78206;BME280;67480;48.920;12.880;2023-04-03T14:57:28;97758.91;;;11.73;23.02
78206;BME280;67480;48.920;12.880;2023-04-03T14:59:54;97756.66;;;10.40;23.83
78206;BME280;67480;48.920;12.880;2023-04-03T15:02:33;97770.44;;;9.76;25.87
78206;BME280;67480;48.920;12.880;2023-04-03T15:04:59;97777.31;;;9.10;25.84
78206;BME280;67480;48.920;12.880;2023-04-03T15:07:27;97771.88;;;9.20;26.50
78206;BME280;67480;48.920;12.880;2023-04-03T15:09:53;97773.28;;;9.42;26.20
78206;BME280;67480;48.920;12.880;2023-04-03T15:12:21;97774.69;;;9.58;25.79
78206;BME280;67480;48.920;12.880;2023-04-03T15:14:46;97767.66;;;8.85;26.50
78206;BME280;67480;48.920;12.880;2023-04-03T15:17:16;97768.72;;;8.49;27.45
78206;BME280;67480;48.920;12.880;2023-04-03T15:19:43;97772.88;;;8.31;27.71
78206;BME280;67480;48.920;12.880;2023-04-03T15:22:17;97771.84;;;7.72;28.24